Time;durP1;ratioP1;P1;durP2;ratioP2;P2;SDS_P1;SDS_P2;PMS_P1;PMS_P2;Temp;Humidity;BMP_temperature;BMP_pressure;BME280_temperature;BME280_humidity;BME280_pressure;Samples;Min_cycle;Max_cycle;Signal;HPM_P1;HPM_P2
2021/01/27 00:02:19;;;;;;;2.65;1.73;;;20.60;36.00;;;;;;5097288;28;20027;-45
2021/01/27 00:04:44;;;;;;;2.92;1.60;;;20.60;36.00;;;;;;5096763;28;20108;-47
2021/01/27 00:07:10;;;;;;;1.92;1.60;;;20.50;35.90;;;;;;5096982;28;20032;-49
2021/01/27 00:09:35;;;;;;;2.28;1.75;;;20.50;35.90;;;;;;5096548;28;20039;-45
2021/01/27 00:12:01;;;;;;;2.55;1.73;;;20.50;35.90;;;;;;5096904;28;20362;-47
2021/01/27 00:14:27;;;;;;;2.03;1.50;;;20.50;35.90;;;;;;5096841;28;20024;-49
2021/01/27 00:16:53;;;;;;;2.55;1.85;;;20.40;35.80;;;;;;5096826;28;20084;-49
2021/01/27 00:19:18;;;;;;;1.92;1.73;;;20.40;35.80;;;;;;5096832;28;20039;-47
2021/01/27 00:21:44;;;;;;;2.75;1.70;;;20.40;35.80;;;;;;5096381;28;20106;-47
2021/01/27 00:24:09;;;;;;;3.08;1.70;;;20.40;35.80;;;;;;5096493;28;20103;-51
2021/01/27 00:26:35;;;;;;;3.10;2.15;;;20.40;35.70;;;;;;5097132;28;20050;-50
2021/01/27 00:29:00;;;;;;;1.88;1.60;;;20.30;35.70;;;;;;5096594;28;20063;-46
2021/01/27 00:31:26;;;;;;;2.75;1.42;;;20.40;35.80;;;;;;5096900;28;20063;-47
2021/01/27 00:33:52;;;;;;;2.00;1.50;;;20.30;35.70;;;;;;5096814;28;20393;-48
2021/01/27 00:36:17;;;;;;;2.88;1.90;;;20.30;35.70;;;;;;5096170;28;20105;-47
2021/01/27 00:38:43;;;;;;;3.03;2.03;;;20.30;35.70;;;;;;5096836;28;20431;-47
2021/01/27 00:41:08;;;;;;;2.40;1.55;;;20.20;35.60;;;;;;5096354;28;20031;-47
2021/01/27 00:43:34;;;;;;;2.10;1.60;;;20.20;35.90;;;;;;5096549;28;20056;-45
2021/01/27 00:46:00;;;;;;;2.20;1.88;;;20.20;35.60;;;;;;5096500;28;20027;-48
2021/01/27 00:48:25;;;;;;;3.08;1.80;;;20.20;35.60;;;;;;5096532;28;20466;-45
2021/01/27 00:50:51;;;;;;;2.40;1.80;;;20.20;35.60;;;;;;5096202;28;20051;-48
2021/01/27 00:53:17;;;;;;;2.80;1.70;;;20.20;35.60;;;;;;5096199;28;20091;-47
2021/01/27 00:55:42;;;;;;;2.60;1.73;;;20.10;35.50;;;;;;5096529;28;20089;-52
2021/01/27 00:58:09;;;;;;;2.42;1.70;;;20.10;35.50;;;;;;5096033;28;20100;-48
2021/01/27 01:00:37;;;;;;;3.50;2.00;;;20.10;35.50;;;;;;5096195;28;20020;-47
2021/01/27 01:03:04;;;;;;;2.15;1.95;;;20.10;35.40;;;;;;5095546;28;20454;-44
2021/01/27 01:05:38;;;;;;;3.65;2.05;;;20.10;35.40;;;;;;5096027;28;20032;-48
2021/01/27 01:08:05;;;;;;;4.40;1.85;;;20.10;35.40;;;;;;5095744;28;20081;-50
2021/01/27 01:10:43;;;;;;;3.10;2.17;;;20.00;35.40;;;;;;5095953;28;20122;-48
2021/01/27 01:13:13;;;;;;;2.00;1.80;;;20.00;35.30;;;;;;5095381;28;20024;-50
2021/01/27 01:15:38;;;;;;;2.30;1.67;;;20.00;35.30;;;;;;5095579;28;20035;-49
2021/01/27 01:18:04;;;;;;;2.10;1.88;;;20.00;35.20;;;;;;5096637;28;20028;-49
2021/01/27 01:20:29;;;;;;;4.80;1.95;;;20.00;35.20;;;;;;5095567;28;20028;-45
2021/01/27 01:23:00;;;;;;;1.90;1.52;;;20.00;35.20;;;;;;5095742;28;20032;-45
2021/01/27 01:25:28;;;;;;;1.90;1.75;;;19.90;35.10;;;;;;5095455;28;20023;-48
2021/01/27 01:27:55;;;;;;;2.25;1.77;;;19.90;35.00;;;;;;5095500;28;20020;-48
2021/01/27 01:30:27;;;;;;;2.58;1.55;;;19.90;35.00;;;;;;5095398;28;20354;-47
2021/01/27 01:32:55;;;;;;;2.28;1.60;;;19.90;35.00;;;;;;5095134;28;20024;-51
2021/01/27 01:35:21;;;;;;;4.03;1.85;;;19.90;35.00;;;;;;5095503;28;20097;-49
2021/01/27 01:37:46;;;;;;;2.08;1.75;;;19.90;35.00;;;;;;5095027;28;20020;-48
2021/01/27 01:40:16;;;;;;;2.60;1.83;;;19.80;34.90;;;;;;5095443;28;20020;-48
2021/01/27 01:42:41;;;;;;;2.38;1.70;;;19.80;34.90;;;;;;5094898;28;20028;-48
2021/01/27 01:45:30;;;;;;;2.47;1.58;;;19.80;34.90;;;;;;5095487;28;20449;-49
2021/01/27 01:48:00;;;;;;;3.67;1.73;;;19.80;34.90;;;;;;5095763;28;20092;-49
2021/01/27 01:50:25;;;;;;;2.30;1.60;;;19.80;34.90;;;;;;5095131;28;20056;-46
2021/01/27 01:52:53;;;;;;;2.38;1.70;;;19.80;34.90;;;;;;5095196;28;20445;-47
2021/01/27 01:55:21;;;;;;;2.10;1.40;;;19.70;34.90;;;;;;5095224;28;20031;-47
2021/01/27 01:57:48;;;;;;;1.67;1.58;;;19.70;34.80;;;;;;5095028;28;20020;-48
2021/01/27 02:00:15;;;;;;;2.97;1.60;;;19.70;34.80;;;;;;5095104;28;20021;-51
2021/01/27 02:02:41;;;;;;;4.03;1.58;;;19.70;34.80;;;;;;5094860;28;20461;-50
2021/01/27 02:05:11;;;;;;;2.33;1.80;;;19.70;34.80;;;;;;5094750;28;20119;-52
2021/01/27 02:07:36;;;;;;;1.42;1.33;;;19.70;34.90;;;;;;5094973;28;20032;-49
2021/01/27 02:10:07;;;;;;;1.83;1.48;;;19.70;34.90;;;;;;5095144;28;20339;-53
2021/01/27 02:12:51;;;;;;;2.35;1.50;;;19.70;34.90;;;;;;5094994;28;20028;-47
2021/01/27 02:15:48;;;;;;;2.67;1.88;;;19.60;34.80;;;;;;5095005;28;20070;-54
2021/01/27 02:18:26;;;;;;;2.08;1.70;;;19.60;34.80;;;;;;5094876;28;20016;-48
2021/01/27 02:21:30;;;;;;;1.40;1.30;;;19.60;34.80;;;;;;5094653;28;20123;-51
2021/01/27 02:24:23;;;;;;;1.83;1.30;;;19.60;34.90;;;;;;5097846;28;20485;-47
2021/01/27 02:27:05;;;;;;;1.95;1.52;;;19.60;34.80;;;;;;5098727;28;20024;-46
2021/01/27 02:29:43;;;;;;;1.55;1.45;;;19.50;34.80;;;;;;5098977;28;20481;-46
2021/01/27 02:32:42;;;;;;;1.95;1.48;;;19.60;34.90;;;;;;5098950;28;20032;-49
2021/01/27 02:35:16;;;;;;;2.78;1.52;;;19.50;34.80;;;;;;5098497;28;20408;-46
2021/01/27 02:37:57;;;;;;;1.40;1.30;;;19.50;34.80;;;;;;5098573;28;20054;-46
2021/01/27 02:40:35;;;;;;;2.65;1.55;;;19.50;34.80;;;;;;5098799;28;20111;-49
2021/01/27 02:43:15;;;;;;;2.42;1.50;;;19.50;34.80;;;;;;5098353;28;20405;-48
2021/01/27 02:45:46;;;;;;;2.67;1.70;;;19.50;34.90;;;;;;5098634;28;20036;-48
2021/01/27 02:48:30;;;;;;;1.52;1.38;;;19.50;34.90;;;;;;5098485;28;20051;-46
2021/01/27 02:51:20;;;;;;;1.60;1.23;;;19.50;34.90;;;;;;5098563;28;20043;-47
2021/01/27 02:54:14;;;;;;;1.77;1.30;;;19.50;34.90;;;;;;5098067;28;20047;-46
2021/01/27 02:56:46;;;;;;;1.55;1.38;;;19.40;34.80;;;;;;5097525;28;20059;-47
2021/01/27 02:59:31;;;;;;;1.58;1.35;;;19.40;34.80;;;;;;5098471;28;20041;-49
2021/01/27 03:02:36;;;;;;;1.45;1.30;;;19.40;34.80;;;;;;5098220;28;20052;-47
2021/01/27 03:05:17;;;;;;;1.42;1.25;;;19.40;34.80;;;;;;5069106;28;20040;-46
2021/01/27 03:07:48;;;;;;;1.58;1.48;;;19.30;34.80;;;;;;5098180;28;20035;-44
2021/01/27 03:10:23;;;;;;;1.95;1.63;;;19.40;34.90;;;;;;5097913;28;20448;-46
2021/01/27 03:12:50;;;;;;;1.48;1.20;;;19.30;34.80;;;;;;5098192;28;20035;-47
2021/01/27 03:15:16;;;;;;;1.92;1.40;;;19.40;34.90;;;;;;5098225;28;20398;-45
2021/01/27 03:17:44;;;;;;;2.22;1.20;;;19.30;34.90;;;;;;5098413;28;20114;-47
2021/01/27 03:20:18;;;;;;;2.10;1.50;;;19.30;34.90;;;;;;5097930;28;20085;-47
2021/01/27 03:22:46;;;;;;;1.60;1.30;;;19.30;34.90;;;;;;5097752;28;20024;-46
2021/01/27 03:25:19;;;;;;;1.85;1.30;;;19.30;35.00;;;;;;5097466;28;20431;-49
2021/01/27 03:28:12;;;;;;;3.85;1.40;;;19.30;34.90;;;;;;5097897;28;20046;-50
2021/01/27 03:30:38;;;;;;;2.70;1.17;;;19.30;34.90;;;;;;5097862;28;20032;-46
2021/01/27 03:33:11;;;;;;;1.20;1.10;;;19.30;34.90;;;;;;5097434;28;20408;-47
2021/01/27 03:35:46;;;;;;;1.50;1.35;;;19.20;34.90;;;;;;5096764;28;20035;-47
2021/01/27 03:38:21;;;;;;;1.40;1.10;;;19.20;34.90;;;;;;5097340;28;20411;-49
2021/01/27 03:40:51;;;;;;;1.27;1.17;;;19.20;34.90;;;;;;5097247;28;20099;-47
2021/01/27 03:43:19;;;;;;;2.00;1.15;;;19.20;34.90;;;;;;5097484;28;20115;-46
2021/01/27 03:45:49;;;;;;;1.60;1.20;;;19.20;34.90;;;;;;5097853;28;20012;-47
2021/01/27 03:48:34;;;;;;;1.70;1.20;;;19.20;35.00;;;;;;5097722;28;20020;-47
2021/01/27 03:51:02;;;;;;;1.75;1.23;;;19.20;34.90;;;;;;5096884;28;20073;-49
2021/01/27 03:53:30;;;;;;;1.25;0.98;;;19.20;35.00;;;;;;5097597;28;20056;-47
2021/01/27 03:56:05;;;;;;;2.85;1.30;;;19.20;35.00;;;;;;5097654;28;20039;-46
2021/01/27 03:58:39;;;;;;;1.40;1.02;;;19.10;35.00;;;;;;5097203;28;20081;-49
2021/01/27 04:01:10;;;;;;;1.23;1.00;;;19.10;34.90;;;;;;5096926;28;20134;-47
2021/01/27 04:03:36;;;;;;;1.60;1.20;;;19.10;35.00;;;;;;5097176;28;20185;-49
2021/01/27 04:06:03;;;;;;;2.60;0.90;;;19.10;34.90;;;;;;5097215;28;20062;-50
2021/01/27 04:08:29;;;;;;;1.45;1.02;;;19.10;35.00;;;;;;5097209;28;20031;-49
2021/01/27 04:10:55;;;;;;;0.80;0.80;;;19.10;35.00;;;;;;5096936;28;20036;-45
2021/01/27 04:13:21;;;;;;;1.73;1.00;;;19.10;35.00;;;;;;5097000;28;20431;-48
2021/01/27 04:15:47;;;;;;;1.35;1.08;;;19.00;34.90;;;;;;5096762;28;20025;-50
2021/01/27 04:18:12;;;;;;;2.00;0.90;;;19.10;35.00;;;;;;5096799;28;20028;-45
2021/01/27 04:20:38;;;;;;;1.00;0.75;;;19.10;35.00;;;;;;5096513;28;20028;-47
2021/01/27 04:23:03;;;;;;;1.33;0.85;;;19.00;35.00;;;;;;5096927;28;20025;-50
2021/01/27 04:25:29;;;;;;;2.63;1.13;;;19.00;35.00;;;;;;5096323;28;20024;-46
2021/01/27 04:27:55;;;;;;;2.05;1.15;;;19.00;35.00;;;;;;5096502;28;20036;-51
2021/01/27 04:30:31;;;;;;;0.85;0.85;;;19.00;35.10;;;;;;5096436;28;20109;-47
2021/01/27 04:32:59;;;;;;;1.10;0.93;;;19.00;35.10;;;;;;5096805;28;20024;-47
2021/01/27 04:35:25;;;;;;;1.27;0.95;;;19.00;35.10;;;;;;5096565;28;20024;-49
2021/01/27 04:37:51;;;;;;;0.75;0.70;;;18.90;35.10;;;;;;5096402;28;20025;-51
2021/01/27 04:40:24;;;;;;;1.08;0.98;;;19.00;35.10;;;;;;5096356;28;20477;-47
2021/01/27 04:42:51;;;;;;;0.98;0.77;;;19.00;35.20;;;;;;5096427;28;20137;-48
2021/01/27 04:45:18;;;;;;;1.48;0.98;;;18.90;35.10;;;;;;5096012;28;20058;-49
2021/01/27 04:47:57;;;;;;;1.08;0.90;;;18.90;35.10;;;;;;5096124;28;20157;-50
2021/01/27 04:50:22;;;;;;;1.33;1.00;;;18.90;35.20;;;;;;5096156;28;20181;-45
2021/01/27 04:53:15;;;;;;;2.85;0.90;;;18.90;35.20;;;;;;5096253;28;20062;-49
2021/01/27 04:56:20;;;;;;;0.90;0.70;;;18.90;35.20;;;;;;5096397;28;20024;-50
2021/01/27 04:59:19;;;;;;;0.90;0.90;;;18.90;35.20;;;;;;5046275;28;20036;-45
2021/01/27 05:01:53;;;;;;;0.93;0.80;;;18.90;35.30;;;;;;5095898;28;20020;-48
2021/01/27 05:04:36;;;;;;;1.25;0.95;;;18.80;35.20;;;;;;5096293;28;20024;-48
2021/01/27 05:07:07;;;;;;;0.93;0.85;;;18.80;35.40;;;;;;5095922;28;20055;-46
2021/01/27 05:09:40;;;;;;;0.68;0.63;;;18.80;35.30;;;;;;5095669;28;20024;-47
2021/01/27 05:12:08;;;;;;;1.10;0.95;;;18.80;35.40;;;;;;5095803;28;20466;-49
2021/01/27 05:14:34;;;;;;;1.05;0.90;;;18.80;35.40;;;;;;5095761;28;20028;-48
2021/01/27 05:17:05;;;;;;;1.10;0.73;;;18.80;36.00;;;;;;5096092;28;20423;-46
2021/01/27 05:19:31;;;;;;;2.50;0.82;;;18.80;35.40;;;;;;5095858;28;20032;-51
2021/01/27 05:21:58;;;;;;;1.25;0.88;;;18.80;35.40;;;;;;5095750;28;20086;-48
2021/01/27 05:24:24;;;;;;;0.95;0.88;;;18.80;35.40;;;;;;5095645;28;20099;-46
2021/01/27 05:27:13;;;;;;;1.45;0.88;;;18.70;35.40;;;;;;5095258;28;20028;-46
2021/01/27 05:29:45;;;;;;;1.02;0.70;;;18.70;35.40;;;;;;5095484;28;20466;-47
2021/01/27 05:32:15;;;;;;;0.60;0.60;;;18.70;35.40;;;;;;5095096;28;20035;-46
2021/01/27 05:34:50;;;;;;;1.00;0.80;;;18.70;35.40;;;;;;5095253;28;20020;-51
2021/01/27 05:37:34;;;;;;;0.73;0.70;;;18.80;35.40;;;;;;5095553;28;20020;-47
2021/01/27 05:40:27;;;;;;;1.38;0.80;;;18.70;35.40;;;;;;5095483;28;20076;-45
2021/01/27 05:42:53;;;;;;;0.90;0.70;;;18.70;35.40;;;;;;5095304;28;20135;-50
2021/01/27 05:45:24;;;;;;;0.80;0.70;;;18.70;35.50;;;;;;5094836;28;20020;-48
2021/01/27 05:47:50;;;;;;;1.30;0.60;;;18.70;35.50;;;;;;5095115;28;20343;-45
2021/01/27 05:50:33;;;;;;;1.63;0.80;;;18.60;35.40;;;;;;5095192;28;20054;-44
2021/01/27 05:53:23;;;;;;;0.73;0.60;;;18.60;35.40;;;;;;5094979;28;20032;-51
2021/01/27 05:56:02;;;;;;;0.85;0.70;;;18.60;35.50;;;;;;5076924;28;20331;-48
2021/01/27 05:58:31;;;;;;;1.23;0.80;;;18.60;35.50;;;;;;5095102;28;20039;-48
2021/01/27 06:01:20;;;;;;;0.80;0.70;;;18.60;35.60;;;;;;5095283;28;20050;-46
2021/01/27 06:03:55;;;;;;;2.00;1.23;;;18.60;35.60;;;;;;5095138;28;20457;-50
2021/01/27 06:06:21;;;;;;;1.08;0.73;;;18.60;35.60;;;;;;5095005;28;20035;-48
2021/01/27 06:08:49;;;;;;;0.90;0.63;;;18.60;35.70;;;;;;5094807;28;20078;-46
2021/01/27 06:11:15;;;;;;;1.23;0.93;;;18.60;35.70;;;;;;5094635;28;20051;-54
2021/01/27 06:13:41;;;;;;;1.10;0.68;;;18.60;35.70;;;;;;5094385;28;20438;-50
2021/01/27 06:16:46;;;;;;;1.15;0.88;;;18.60;35.70;;;;;;5094291;28;20028;-52
2021/01/27 06:19:17;;;;;;;0.68;0.63;;;18.60;35.80;;;;;;5079993;28;20131;-48
2021/01/27 06:22:12;;;;;;;0.73;0.63;;;18.50;35.70;;;;;;5094662;28;20027;-47
2021/01/27 06:24:59;;;;;;;1.60;0.60;;;18.50;35.80;;;;;;5094582;28;20020;-48
2021/01/27 06:27:36;;;;;;;1.10;0.73;;;18.50;35.80;;;;;;5094702;28;20452;-46
2021/01/27 06:30:05;;;;;;;0.70;0.70;;;18.50;35.80;;;;;;5094762;28;20115;-48
2021/01/27 06:33:06;;;;;;;1.08;0.70;;;18.50;35.90;;;;;;5094204;28;20192;-46
2021/01/27 06:35:45;;;;;;;1.25;0.75;;;18.50;36.10;;;;;;5094563;28;20370;-45
2021/01/27 06:38:24;;;;;;;1.90;0.60;;;18.50;36.10;;;;;;5094690;28;20107;-48
2021/01/27 06:41:29;;;;;;;1.38;0.75;;;18.50;36.20;;;;;;5094346;28;20028;-49
2021/01/27 06:44:15;;;;;;;10.63;1.00;;;18.50;36.40;;;;;;5094234;28;20032;-46
2021/01/27 06:47:06;;;;;;;1.85;0.60;;;18.40;36.40;;;;;;5095007;28;20016;-46
2021/01/27 06:49:31;;;;;;;0.82;0.63;;;18.40;36.50;;;;;;5094104;28;20399;-46
2021/01/27 06:52:11;;;;;;;1.15;0.77;;;18.50;36.70;;;;;;5094186;28;20139;-47
2021/01/27 06:55:03;;;;;;;0.77;0.68;;;18.50;36.90;;;;;;5094258;28;20419;-46
2021/01/27 06:58:00;;;;;;;0.95;0.60;;;18.50;37.10;;;;;;5094690;28;20151;-50
2021/01/27 07:00:54;;;;;;;1.35;0.50;;;18.50;37.10;;;;;;5093098;28;20047;-46
2021/01/27 07:03:40;;;;;;;2.78;0.57;;;18.60;37.20;;;;;;5094421;28;20039;-47
2021/01/27 07:06:19;;;;;;;1.73;0.60;;;18.60;37.40;;;;;;5094619;28;20024;-46
2021/01/27 07:08:48;;;;;;;1.05;0.63;;;18.60;37.40;;;;;;5094205;28;20053;-48
2021/01/27 07:11:22;;;;;;;2.40;0.40;;;18.70;37.60;;;;;;5097167;28;20363;-47
2021/01/27 07:14:13;;;;;;;1.38;0.77;;;18.80;37.60;;;;;;5098065;28;20024;-45
2021/01/27 07:16:53;;;;;;;1.80;0.82;;;18.80;37.70;;;;;;5097566;28;20465;-44
2021/01/27 07:19:49;;;;;;;0.90;0.52;;;18.90;37.70;;;;;;5097936;28;20119;-48
2021/01/27 07:22:27;;;;;;;1.30;0.50;;;18.90;37.70;;;;;;5097728;28;20016;-45
2021/01/27 07:25:34;;;;;;;0.70;0.38;;;19.00;37.70;;;;;;5097402;28;20027;-46
2021/01/27 07:28:12;;;;;;;2.38;0.90;;;19.00;37.70;;;;;;5008333;28;20042;-46
2021/01/27 07:30:51;;;;;;;1.58;0.60;;;19.00;38.00;;;;;;5097602;28;20024;-45
2021/01/27 07:33:20;;;;;;;1.50;0.52;;;19.00;38.00;;;;;;5097106;28;20499;-46
2021/01/27 07:36:15;;;;;;;2.63;0.43;;;19.00;38.00;;;;;;5097248;28;20056;-50
2021/01/27 07:38:43;;;;;;;0.52;0.43;;;19.00;38.10;;;;;;5097516;28;20020;-46
2021/01/27 07:41:16;;;;;;;3.65;1.00;;;19.00;38.10;;;;;;5097509;28;20039;-47
2021/01/27 07:43:53;;;;;;;0.73;0.60;;;19.00;37.40;;;;;;5097837;28;20046;-48
2021/01/27 07:46:29;;;;;;;3.13;0.50;;;18.90;38.00;;;;;;5071494;28;20284;-47
2021/01/27 07:49:01;;;;;;;3.63;0.60;;;18.90;38.30;;;;;;5066953;28;20103;-48
2021/01/27 07:51:32;;;;;;;0.50;0.50;;;18.90;38.40;;;;;;5065578;28;20102;-52
2021/01/27 07:54:06;;;;;;;0.88;0.50;;;18.90;38.40;;;;;;5057333;28;20025;-51
2021/01/27 07:56:52;;;;;;;2.17;0.65;;;19.00;38.50;;;;;;5056444;28;20021;-46
2021/01/27 07:59:38;;;;;;;1.23;0.60;;;19.00;38.50;;;;;;5056849;28;20432;-44
2021/01/27 08:02:18;;;;;;;0.55;0.52;;;19.00;38.50;;;;;;5056792;28;20029;-46
2021/01/27 08:04:47;;;;;;;2.80;0.52;;;19.10;38.50;;;;;;5066515;28;20156;-47
2021/01/27 08:07:49;;;;;;;2.05;0.60;;;19.10;38.50;;;;;;5076772;28;20036;-46
2021/01/27 08:10:25;;;;;;;0.88;0.50;;;19.10;38.50;;;;;;5055739;28;20123;-46
2021/01/27 08:12:55;;;;;;;1.80;0.43;;;19.20;38.60;;;;;;5076585;28;20036;-46
2021/01/27 08:15:26;;;;;;;2.97;0.85;;;19.20;38.60;;;;;;5076642;28;20482;-48
2021/01/27 08:17:54;;;;;;;1.35;0.52;;;19.20;38.60;;;;;;5077038;28;20028;-53
2021/01/27 08:20:28;;;;;;;5.05;0.75;;;19.20;38.50;;;;;;5076096;28;20029;-46
2021/01/27 08:22:57;;;;;;;0.82;0.50;;;19.20;38.60;;;;;;5076057;28;20024;-45
2021/01/27 08:25:48;;;;;;;1.88;0.40;;;19.20;38.60;;;;;;5075595;28;20058;-50
2021/01/27 08:28:18;;;;;;;4.75;0.52;;;19.30;38.60;;;;;;5075858;28;20382;-48
2021/01/27 08:31:10;;;;;;;2.65;0.57;;;19.30;38.60;;;;;;5076264;28;20025;-47
2021/01/27 08:33:47;;;;;;;2.10;0.40;;;19.30;38.60;;;;;;5076071;28;20469;-46
2021/01/27 08:36:31;;;;;;;2.30;0.60;;;19.30;38.60;;;;;;5075727;28;20028;-48
2021/01/27 08:38:56;;;;;;;0.47;0.47;;;19.30;38.60;;;;;;5076424;28;20028;-46
2021/01/27 08:41:50;;;;;;;1.00;0.45;;;19.40;38.80;;;;;;5076163;28;20082;-51
2021/01/27 08:44:18;;;;;;;1.85;0.40;;;19.40;38.60;;;;;;5076093;28;20024;-47
2021/01/27 08:46:47;;;;;;;0.65;0.40;;;19.40;38.50;;;;;;5076110;28;20051;-47
2021/01/27 08:49:35;;;;;;;2.45;0.30;;;19.40;38.50;;;;;;5075610;28;20025;-47
2021/01/27 08:52:10;;;;;;;0.57;0.40;;;19.40;38.50;;;;;;5075269;28;20078;-48
2021/01/27 08:54:42;;;;;;;3.03;0.40;;;19.40;38.50;;;;;;5075563;28;20466;-46
2021/01/27 08:57:36;;;;;;;0.77;0.30;;;19.40;38.40;;;;;;5075691;28;20028;-52
2021/01/27 09:00:34;;;;;;;0.47;0.38;;;19.40;38.40;;;;;;5075756;28;20470;-50
2021/01/27 09:03:02;;;;;;;0.30;0.30;;;19.40;38.40;;;;;;5075819;28;20072;-49
2021/01/27 09:05:27;;;;;;;0.95;0.40;;;19.40;38.30;;;;;;5075597;28;20033;-49
2021/01/27 09:07:59;;;;;;;1.85;0.30;;;19.40;38.30;;;;;;5076006;28;20439;-51
2021/01/27 09:10:43;;;;;;;0.30;0.30;;;19.40;38.40;;;;;;5075770;28;20375;-48
2021/01/27 09:13:28;;;;;;;0.90;0.38;;;19.40;38.30;;;;;;5075648;28;20366;-50
2021/01/27 09:16:03;;;;;;;1.58;0.30;;;19.40;38.30;;;;;;5075919;28;20044;-47
2021/01/27 09:18:29;;;;;;;0.22;0.20;;;19.40;38.30;;;;;;5075554;28;20045;-49
2021/01/27 09:21:03;;;;;;;0.63;0.30;;;19.40;38.30;;;;;;5075439;28;20032;-45
2021/01/27 09:23:29;;;;;;;0.32;0.20;;;19.40;38.30;;;;;;5075409;28;20021;-45
2021/01/27 09:25:54;;;;;;;2.60;0.50;;;19.40;38.30;;;;;;5075205;28;20032;-47
2021/01/27 09:28:25;;;;;;;2.03;0.30;;;19.40;38.20;;;;;;5075403;28;20017;-46
2021/01/27 09:30:52;;;;;;;0.38;0.38;;;19.40;38.30;;;;;;5075210;28;20070;-50
2021/01/27 09:33:36;;;;;;;1.08;0.40;;;19.40;38.30;;;;;;5074884;28;20028;-47
2021/01/27 09:36:25;;;;;;;0.50;0.47;;;19.40;38.20;;;;;;5074993;28;20025;-49
2021/01/27 09:38:52;;;;;;;0.20;0.20;;;19.40;38.30;;;;;;5075282;28;20016;-46
2021/01/27 09:41:24;;;;;;;0.17;0.17;;;19.50;38.30;;;;;;5075619;28;20063;-50
2021/01/27 09:43:50;;;;;;;2.58;0.30;;;19.40;38.20;;;;;;5074833;28;20074;-51
2021/01/27 09:46:34;;;;;;;0.30;0.30;;;19.50;38.20;;;;;;5075026;28;20104;-47
2021/01/27 09:49:04;;;;;;;0.10;0.10;;;19.50;38.20;;;;;;5075084;28;20107;-50
2021/01/27 09:51:31;;;;;;;0.30;0.30;;;19.40;38.20;;;;;;5075088;28;20056;-50
2021/01/27 09:54:02;;;;;;;0.20;0.20;;;19.50;38.20;;;;;;5075410;28;20067;-47
2021/01/27 09:56:29;;;;;;;0.20;0.20;;;19.50;38.20;;;;;;5074620;28;20020;-51
2021/01/27 09:58:55;;;;;;;1.05;0.30;;;19.50;38.20;;;;;;5074883;28;20031;-50
2021/01/27 10:01:26;;;;;;;0.30;0.30;;;19.40;38.10;;;;;;5074599;28;20440;-52
2021/01/27 10:03:54;;;;;;;0.85;0.30;;;19.50;38.10;;;;;;5075198;28;20060;-48
2021/01/27 10:06:36;;;;;;;0.28;0.28;;;19.50;38.10;;;;;;5075237;28;20020;-48
2021/01/27 10:09:07;;;;;;;0.20;0.20;;;19.50;38.80;;;;;;5074791;28;20052;-47
2021/01/27 10:11:35;;;;;;;0.47;0.20;;;19.50;38.10;;;;;;5074567;28;20041;-47
2021/01/27 10:14:13;;;;;;;0.50;0.30;;;19.50;38.10;;;;;;5074551;28;20378;-46
2021/01/27 10:16:54;;;;;;;0.90;0.20;;;19.50;38.10;;;;;;5074776;28;20036;-46
2021/01/27 10:19:24;;;;;;;0.30;0.20;;;19.50;38.10;;;;;;5074724;28;20028;-51
2021/01/27 10:21:50;;;;;;;0.30;0.30;;;19.50;38.10;;;;;;5074610;28;20351;-49
2021/01/27 10:24:37;;;;;;;0.68;0.32;;;19.50;38.10;;;;;;5074706;28;20029;-48
2021/01/27 10:27:04;;;;;;;0.20;0.20;;;19.50;38.10;;;;;;5075116;28;20035;-48
2021/01/27 10:29:36;;;;;;;0.20;0.10;;;19.40;38.00;;;;;;5074601;28;20082;-50
2021/01/27 10:32:17;;;;;;;0.30;0.30;;;19.50;38.10;;;;;;5074267;28;20075;-46
2021/01/27 10:34:45;;;;;;;0.10;0.10;;;19.50;38.10;;;;;;5074360;28;20020;-45
2021/01/27 10:37:30;;;;;;;0.60;0.40;;;19.50;38.10;;;;;;5074251;28;20060;-46
2021/01/27 10:40:10;;;;;;;1.38;0.28;;;19.50;38.10;;;;;;5074538;28;20516;-47
2021/01/27 10:42:38;;;;;;;0.30;0.10;;;19.50;38.10;;;;;;5074376;28;20031;-49
2021/01/27 10:45:25;;;;;;;0.30;0.30;;;19.50;38.10;;;;;;5077479;28;20055;-47
2021/01/27 10:48:10;;;;;;;0.30;0.28;;;19.60;38.10;;;;;;5078333;28;20067;-46
2021/01/27 10:50:41;;;;;;;0.40;0.20;;;19.60;38.10;;;;;;5077866;28;20053;-48
2021/01/27 10:53:10;;;;;;;0.20;0.20;;;19.50;38.10;;;;;;5078373;28;20461;-48
2021/01/27 10:55:37;;;;;;;0.40;0.20;;;19.60;38.20;;;;;;5078209;28;20021;-46
2021/01/27 10:58:11;;;;;;;0.28;0.20;;;19.60;38.20;;;;;;5078306;28;20112;-47
2021/01/27 11:00:37;;;;;;;0.10;0.10;;;19.60;38.20;;;;;;5078390;28;20128;-47
2021/01/27 11:03:08;;;;;;;0.17;0.17;;;19.60;38.20;;;;;;5078132;28;20052;-47
2021/01/27 11:05:34;;;;;;;0.20;0.20;;;19.60;38.20;;;;;;5077859;28;20028;-50
2021/01/27 11:08:01;;;;;;;0.25;0.25;;;19.60;38.20;;;;;;5078079;28;20078;-50
2021/01/27 11:10:27;;;;;;;0.30;0.30;;;19.60;38.20;;;;;;5077954;28;20028;-50
2021/01/27 11:12:53;;;;;;;0.20;0.20;;;19.60;38.20;;;;;;5077880;28;20020;-46
2021/01/27 11:15:19;;;;;;;0.38;0.35;;;19.60;38.20;;;;;;5077928;28;20028;-50
2021/01/27 11:17:44;;;;;;;0.28;0.28;;;19.60;38.20;;;;;;5078319;28;20347;-50
2021/01/27 11:20:10;;;;;;;0.20;0.20;;;19.60;38.20;;;;;;5077577;28;20032;-46
2021/01/27 11:22:36;;;;;;;0.22;0.20;;;19.60;38.20;;;;;;5077903;28;20394;-46
2021/01/27 11:25:03;;;;;;;0.50;0.20;;;19.60;38.20;;;;;;5077736;28;20020;-46
2021/01/27 11:27:28;;;;;;;0.10;0.10;;;19.60;38.20;;;;;;5077558;28;20024;-46
2021/01/27 11:29:54;;;;;;;0.20;0.20;;;19.60;38.20;;;;;;5077269;28;20029;-52
2021/01/27 11:32:19;;;;;;;0.20;0.20;;;19.60;38.20;;;;;;5077424;28;20386;-49
2021/01/27 11:34:44;;;;;;;0.85;0.40;;;19.60;38.20;;;;;;5077478;28;20027;-47
2021/01/27 11:37:11;;;;;;;0.20;0.20;;;19.70;38.30;;;;;;5077455;28;20431;-47
2021/01/27 11:39:36;;;;;;;0.30;0.25;;;19.70;38.30;;;;;;5077221;28;20028;-50
2021/01/27 11:42:03;;;;;;;0.20;0.20;;;19.70;38.30;;;;;;5077325;28;20074;-48
2021/01/27 11:44:29;;;;;;;0.20;0.20;;;19.70;38.30;;;;;;5077612;28;20095;-47
2021/01/27 11:46:54;;;;;;;0.40;0.20;;;19.70;38.30;;;;;;5077231;28;20063;-48
2021/01/27 11:49:20;;;;;;;0.30;0.30;;;19.70;38.30;;;;;;5076800;28;20024;-46
2021/01/27 11:51:45;;;;;;;0.30;0.30;;;19.70;38.30;;;;;;5077391;28;20211;-50
2021/01/27 11:54:11;;;;;;;0.22;0.20;;;19.70;38.30;;;;;;5076987;28;20120;-48
2021/01/27 11:56:37;;;;;;;0.30;0.30;;;19.70;38.30;;;;;;5076208;28;20123;-46
2021/01/27 11:59:03;;;;;;;0.30;0.30;;;19.70;38.30;;;;;;5077642;28;20099;-47
2021/01/27 12:01:29;;;;;;;0.20;0.20;;;19.70;38.30;;;;;;5076736;28;20025;-47
2021/01/27 12:03:55;;;;;;;0.30;0.30;;;19.70;38.30;;;;;;5076967;28;20036;-46
2021/01/27 12:06:21;;;;;;;0.20;0.20;;;19.70;38.30;;;;;;5077073;28;20024;-45
2021/01/27 12:08:46;;;;;;;0.63;0.30;;;19.70;38.40;;;;;;5076300;28;20344;-50
2021/01/27 12:11:12;;;;;;;0.20;0.20;;;19.80;38.40;;;;;;5076540;28;20032;-46
2021/01/27 12:13:38;;;;;;;0.55;0.38;;;19.80;38.40;;;;;;5077041;28;20060;-46
2021/01/27 12:16:03;;;;;;;0.28;0.28;;;19.80;38.50;;;;;;5076681;28;20029;-48
2021/01/27 12:18:29;;;;;;;0.30;0.30;;;19.80;38.50;;;;;;5076659;28;20098;-48
2021/01/27 12:20:54;;;;;;;0.40;0.40;;;19.80;38.50;;;;;;5076649;28;20028;-47
2021/01/27 12:23:20;;;;;;;0.35;0.35;;;19.80;38.40;;;;;;5076763;28;20487;-47
2021/01/27 12:25:46;;;;;;;0.20;0.20;;;19.80;38.50;;;;;;5076587;28;20536;-51
2021/01/27 12:28:12;;;;;;;0.30;0.20;;;19.80;38.50;;;;;;5076427;28;20090;-47
2021/01/27 12:30:38;;;;;;;0.20;0.20;;;19.80;38.50;;;;;;5076320;28;20090;-51
2021/01/27 12:33:04;;;;;;;0.40;0.40;;;19.80;38.50;;;;;;5076357;28;20029;-50
2021/01/27 12:35:31;;;;;;;0.30;0.30;;;19.80;38.50;;;;;;5076391;28;20029;-46
2021/01/27 12:37:57;;;;;;;0.32;0.32;;;19.80;38.50;;;;;;5076082;28;20032;-54
2021/01/27 12:40:23;;;;;;;0.50;0.50;;;19.80;38.60;;;;;;5076303;28;20028;-45
2021/01/27 12:42:49;;;;;;;0.60;0.60;;;19.80;38.60;;;;;;5076069;28;20459;-47
2021/01/27 12:45:16;;;;;;;0.40;0.40;;;19.80;38.60;;;;;;5076144;28;20093;-48
2021/01/27 12:47:42;;;;;;;0.73;0.40;;;19.80;38.60;;;;;;5076324;28;20024;-48
2021/01/27 12:50:09;;;;;;;0.50;0.50;;;19.80;38.60;;;;;;5075651;28;20352;-46
2021/01/27 12:52:35;;;;;;;0.45;0.40;;;19.80;38.60;;;;;;5075969;28;20056;-47
2021/01/27 12:55:01;;;;;;;0.50;0.50;;;19.90;38.70;;;;;;5075876;28;20032;-50
2021/01/27 12:57:27;;;;;;;0.50;0.50;;;19.90;38.70;;;;;;5075918;28;20351;-47
2021/01/27 12:59:52;;;;;;;0.50;0.50;;;19.90;38.70;;;;;;5075952;28;20024;-50
2021/01/27 13:02:17;;;;;;;1.05;0.40;;;19.90;38.70;;;;;;5075367;28;20028;-46
2021/01/27 13:04:43;;;;;;;0.38;0.38;;;19.90;38.70;;;;;;5075730;28;20355;-50
2021/01/27 13:07:08;;;;;;;0.63;0.60;;;19.90;38.70;;;;;;5074560;28;20056;-48
2021/01/27 13:09:34;;;;;;;0.57;0.57;;;19.90;38.70;;;;;;5075541;28;20036;-48
2021/01/27 13:11:59;;;;;;;0.43;0.43;;;19.90;38.70;;;;;;5075554;28;20119;-46
2021/01/27 13:14:25;;;;;;;1.00;0.55;;;19.90;38.80;;;;;;5075489;28;20043;-46
2021/01/27 13:16:51;;;;;;;0.60;0.50;;;19.90;38.80;;;;;;5075619;28;20025;-49
2021/01/27 13:19:17;;;;;;;0.60;0.60;;;19.90;38.80;;;;;;5075628;28;20024;-48